• Join FlightAware (Why Join?)
  • Login
  • US Flag 
04:27AM EDT


 

Airport Tracker/Info


-or-


 

Live Flight TrackerFlight Track Log ✈ SWA2874 ✈ 26-Apr-2013 ✈ KHOU - KMSY

Flight Track Log - Related Links

Times and Time Zones

All times are in EDT time to prevent confusion due to time zone crossing. See the SWA2874 flight status page for this flight to view local times or setup timezone preferences in your user account.

Time Position Orientation Groundspeed Altitude Reporting Facility
EDT Latitude Longitude Course Direction KTS MPH feet Rate Location/Type
02:42PM 29.5919 -95.2728 161° South 191 220 2,800  Level Houston Center
02:43PM 29.5406 -95.2406 151° Southeast 232 267 4,900 2,100 Climbing Houston Center
02:44PM 29.4822 -95.2033 151° Southeast 246 283 7,300 1,860 Climbing Houston Center
02:45PM 29.4350 -95.1214 123° Southeast 297 342 8,900 1,980 Climbing Houston Center
02:46PM 29.4497 -95.0253 80° East 310 357 11,500 2,520 Climbing Houston Center
02:47PM 29.4606 -94.9175 83° East 341 392 14,300 2,640 Climbing Houston Center
02:48PM 29.5028 -94.8075 66° East 381 438 17,000 2,820 Climbing Houston Center
02:49PM 29.5656 -94.6725 62° Northeast 402 463 20,200 2,760 Climbing Houston Center
02:50PM 29.6206 -94.5569 61° Northeast 415 478 22,800 2,160 Climbing Houston Center
02:51PM 29.6664 -94.4247 68° East 453 521 24,700 1,740 Climbing Houston Center
02:52PM 29.6672 -94.2764 90° East 468 539 26,500 1,440 Climbing Houston Center
02:53PM 29.6731 -94.1081 88° East 480 552 27,700 1,200 Climbing Houston Center
02:54PM 29.6978 -93.9572 79° East 485 558 29,000 600 Climbing Houston Center
02:55PM 29.7208 -93.8031 80° East 490 564 29,000  Level Houston Center
02:56PM 29.7450 -93.6500 80° East 491 565 29,000  Level Houston Center
02:57PM 29.7711 -93.4653 81° East 492 566 29,000  Level Houston Center
02:58PM 29.7939 -93.3108 80° East 493 567 29,000  Level Houston Center
02:59PM 29.8156 -93.1586 81° East 489 563 29,000  Level Houston Center
03:00PM 29.8372 -93.0053 81° East 490 564 29,000  Level Houston Center
03:01PM 29.8600 -92.8500 80° East 494 568 29,000  Level Houston Center
03:02PM 29.8867 -92.6650 81° East 493 567 29,000  Level Houston Center
03:04PM 29.9075 -92.5100 81° East 492 566 29,000  Level Houston Center
03:05PM 29.9300 -92.3533 81° East 496 571 29,000  Level Houston Center
03:06PM 29.9522 -92.1956 81° East 499 574 29,000 -240 Level Houston Center
03:07PM 29.9744 -92.0383 81° East 500 575 28,600 -1,860 Descending Houston Center
03:08PM 29.9983 -91.8525 82° East 493 567 25,200 -3,000 Descending Houston Center
03:09PM 30.0197 -91.7003 81° East 483 556 22,400 -2,580 Descending Houston Center
03:10PM 30.0392 -91.5589 81° East 464 534 19,900 -2,400 Descending Houston Center
03:11PM 30.0564 -91.4178 82° East 419 482 17,700 -2,280 Descending Houston Center
03:12PM 30.0736 -91.2983 81° East 412 474 15,300 -2,640 Descending Houston Center
03:13PM 30.0853 -91.1739 84° East 397 457 12,100 -2,160 Descending Houston Center
03:14PM 30.0747 -91.0331 95° East 360 414 11,000 -960 Descending Houston Center
03:15PM 30.0728 -90.9328 91° East 325 374 10,200 -1,140 Descending Houston Center
03:16PM 30.0703 -90.8381 92° East 307 353 8,700 -1,500 Descending Houston Center
03:17PM 30.0650 -90.7444 94° East 299 344 7,200 -1,500 Descending Houston Center
03:18PM 30.0622 -90.6525 92° East 293 337 5,700 -1,500 Descending Houston Center
03:19PM 30.0572 -90.5433 93° East 289 333 4,100 -1,260 Descending Houston Center
03:20PM 30.0417 -90.4625 103° East 271 312 3,100 -1,080 Descending Houston Center
03:21PM 30.0219 -90.3864 107° East 210 242 1,900 -1,020 Descending Houston Center
03:22PM 30.0100 -90.3367 105° East 149 171 1,000 -900 Descending Houston Center
03:23PM 29.9983 -90.2961 108° East 125 144 200 -840 Descending Houston Center
03:25PM 29.9934 -90.2580 101° East  Level Estimated
03:32PM 29.9934 -90.2580 101° East  Level Estimated
03:33PM 29.9934 -90.2580 101° East  Level Estimated
03:34PM 29.9934 -90.2580 101° East  Level Estimated